Time;durP1;ratioP1;P1;durP2;ratioP2;P2;SDS_P1;SDS_P2;PMS_P1;PMS_P2;Temp;Humidity;BMP_temperature;BMP_pressure;BME280_temperature;BME280_humidity;BME280_pressure;Samples;Min_cycle;Max_cycle;Signal;HPM_P1;HPM_P2
2023/01/04 00:01:06;;;;;;;44.28;33.95;;;12.70;92.00;;;;;;5051578;28;20557;-76
2023/01/04 00:03:32;;;;;;;45.75;32.45;;;12.70;91.90;;;;;;5051805;28;20134;-74
2023/01/04 00:06:02;;;;;;;48.58;33.35;;;12.70;92.00;;;;;;5033902;28;20039;-76
2023/01/04 00:08:28;;;;;;;54.60;35.00;;;12.70;92.00;;;;;;5051820;28;20029;-75
2023/01/04 00:11:07;;;;;;;47.50;32.83;;;12.70;91.90;;;;;;5053223;28;20112;-77
2023/01/04 00:13:33;;;;;;;47.45;34.38;;;12.70;92.10;;;;;;5055124;28;20029;-76
2023/01/04 00:16:08;;;;;;;45.08;33.70;;;12.70;91.90;;;;;;5037455;28;20037;-75
2023/01/04 00:18:35;;;;;;;46.53;34.03;;;12.70;91.90;;;;;;5055656;28;20059;-76
2023/01/04 00:21:09;;;;;;;45.70;33.38;;;12.70;92.00;;;;;;5055055;28;20029;-76
2023/01/04 00:23:36;;;;;;;45.75;33.92;;;12.70;92.10;;;;;;5037573;28;20044;-74
2023/01/04 00:26:07;;;;;;;45.75;34.92;;;12.70;92.00;;;;;;5055579;28;20071;-75
2023/01/04 00:28:32;;;;;;;48.47;34.22;;;12.60;92.00;;;;;;5037640;28;20114;-74
2023/01/04 00:31:02;;;;;;;46.72;35.05;;;12.60;92.10;;;;;;5055286;28;20480;-75
2023/01/04 00:33:28;;;;;;;43.53;33.30;;;12.60;92.10;;;;;;5054861;28;20070;-75
2023/01/04 00:35:54;;;;;;;48.00;34.30;;;12.60;92.00;;;;;;5037002;28;20029;-76
2023/01/04 00:38:19;;;;;;;44.65;34.03;;;12.60;92.10;;;;;;5054869;28;20037;-75
2023/01/04 00:40:45;;;;;;;43.17;32.25;;;12.60;92.10;;;;;;5055171;28;20095;-76
2023/01/04 00:43:11;;;;;;;47.10;33.00;;;12.50;92.20;;;;;;5055314;28;20053;-75
2023/01/04 00:45:36;;;;;;;42.28;32.53;;;12.50;92.10;;;;;;5036971;28;20040;-76
2023/01/04 00:48:02;;;;;;;40.55;31.05;;;12.50;92.10;;;;;;5036968;28;20048;-77
2023/01/04 00:50:28;;;;;;;44.15;33.80;;;12.50;92.10;;;;;;5036890;28;20025;-75
2023/01/04 00:52:53;;;;;;;42.30;32.60;;;12.50;92.10;;;;;;5054987;28;20477;-74
2023/01/04 00:55:19;;;;;;;41.10;31.85;;;12.50;92.10;;;;;;5037105;28;20100;-75
2023/01/04 00:57:45;;;;;;;38.78;31.65;;;12.50;92.10;;;;;;5054927;28;20045;-74
2023/01/04 01:00:11;;;;;;;43.05;31.02;;;12.40;92.10;;;;;;5036920;28;20033;-75
2023/01/04 01:02:37;;;;;;;41.60;31.10;;;12.50;92.10;;;;;;5036572;28;20083;-75
2023/01/04 01:05:03;;;;;;;39.70;30.52;;;12.40;91.90;;;;;;5048455;28;20053;-74
2023/01/04 01:07:28;;;;;;;40.33;31.02;;;12.40;92.00;;;;;;5045674;28;20500;-76
2023/01/04 01:09:54;;;;;;;46.28;30.42;;;12.30;91.90;;;;;;5036655;28;20044;-75
2023/01/04 01:12:20;;;;;;;39.15;30.42;;;12.30;92.00;;;;;;5036225;28;20052;-74
2023/01/04 01:14:46;;;;;;;39.65;30.38;;;12.30;92.00;;;;;;5054273;28;20035;-75
2023/01/04 01:17:11;;;;;;;41.28;30.00;;;12.30;92.00;;;;;;5035897;28;20072;-74
2023/01/04 01:19:37;;;;;;;40.67;30.88;;;12.30;91.90;;;;;;5054040;28;20021;-77
2023/01/04 01:22:02;;;;;;;38.33;31.00;;;12.30;91.90;;;;;;5035337;28;20127;-75
2023/01/04 01:24:28;;;;;;;38.67;31.95;;;12.30;91.90;;;;;;5054514;28;20480;-75
2023/01/04 01:26:55;;;;;;;40.97;30.77;;;12.30;91.90;;;;;;5036399;28;20073;-77
2023/01/04 01:29:20;;;;;;;45.70;31.42;;;12.30;92.00;;;;;;5054389;28;20040;-74
2023/01/04 01:31:46;;;;;;;39.40;30.30;;;12.30;91.90;;;;;;5054307;28;20053;-75
2023/01/04 01:34:12;;;;;;;48.45;32.83;;;12.20;91.90;;;;;;5036423;28;20476;-76
2023/01/04 01:36:37;;;;;;;43.83;32.85;;;12.20;91.90;;;;;;5053703;28;20048;-75
2023/01/04 01:39:05;;;;;;;42.42;31.27;;;12.10;91.90;;;;;;5053966;28;20104;-76
2023/01/04 01:41:33;;;;;;;41.22;30.75;;;12.10;91.90;;;;;;5036151;28;20033;-76
2023/01/04 01:44:01;;;;;;;41.08;31.55;;;12.10;91.90;;;;;;5035726;28;20512;-75
2023/01/04 01:46:40;;;;;;;40.63;31.10;;;12.10;91.90;;;;;;5053881;28;20313;-76
2023/01/04 01:49:21;;;;;;;38.60;31.13;;;12.10;91.90;;;;;;5035968;28;20029;-76
2023/01/04 01:51:47;;;;;;;39.03;30.73;;;12.10;91.90;;;;;;5053784;28;20047;-75
2023/01/04 01:54:19;;;;;;;41.70;31.52;;;12.00;92.00;;;;;;5035854;28;20060;-76
2023/01/04 01:56:49;;;;;;;37.80;30.05;;;12.00;92.00;;;;;;5053435;28;20060;-76
2023/01/04 01:59:16;;;;;;;41.97;31.63;;;11.90;91.90;;;;;;5053387;28;20037;-77
2023/01/04 02:01:43;;;;;;;40.50;31.65;;;11.90;92.10;;;;;;5053757;28;20037;-75
2023/01/04 02:04:10;;;;;;;40.50;30.58;;;11.90;92.10;;;;;;5035704;28;20149;-75
2023/01/04 02:06:40;;;;;;;40.72;30.73;;;11.80;92.10;;;;;;5053696;28;20048;-75
2023/01/04 02:09:06;;;;;;;38.97;31.20;;;11.80;92.20;;;;;;5035851;28;20033;-75
2023/01/04 02:11:32;;;;;;;39.05;29.60;;;11.80;92.20;;;;;;5053344;28;20158;-76
2023/01/04 02:16:55;;;;;;;41.33;31.50;;;11.80;92.10;;;;;;5053518;28;20598;-76
2023/01/04 02:19:30;;;;;;;38.38;30.75;;;11.80;92.10;;;;;;5053273;28;20068;-75
2023/01/04 02:22:16;;;;;;;37.10;30.42;;;11.70;91.80;;;;;;5035257;28;20044;-76
2023/01/04 02:25:06;;;;;;;38.33;30.15;;;11.70;92.00;;;;;;5035280;28;20506;-75
2023/01/04 02:27:37;;;;;;;38.65;30.63;;;11.70;91.80;;;;;;5053301;28;20400;-76
2023/01/04 02:30:27;;;;;;;39.53;30.00;;;11.70;91.90;;;;;;5053081;28;20033;-75
2023/01/04 02:32:53;;;;;;;38.30;30.35;;;11.70;91.80;;;;;;5052928;28;20040;-76
2023/01/04 02:35:37;;;;;;;40.03;30.85;;;11.70;91.90;;;;;;5052833;28;20036;-76
2023/01/04 02:38:27;;;;;;;37.72;30.27;;;11.70;91.60;;;;;;5052972;28;20124;-75
2023/01/04 02:41:16;;;;;;;37.83;29.48;;;11.70;91.80;;;;;;5035056;28;20033;-76
2023/01/04 02:50:29;;;;;;;38.70;28.60;;;11.70;91.50;;;;;;5053057;28;20048;-76
2023/01/04 02:50:29;;;;;;;39.33;29.70;;;11.70;91.70;;;;;;5052273;28;20032;-75
2023/01/04 02:52:57;;;;;;;39.75;28.65;;;11.60;91.40;;;;;;5034949;28;20048;-76
2023/01/04 02:55:29;;;;;;;37.55;28.85;;;11.60;91.80;;;;;;5052710;28;20071;-76
2023/01/04 02:58:06;;;;;;;33.90;27.52;;;11.60;91.80;;;;;;5034457;28;20116;-75
2023/01/04 03:07:08;;;;;;;37.00;26.02;;;11.40;91.90;;;;;;5052748;28;20455;-75
2023/01/04 03:09:38;;;;;;;41.17;25.58;;;11.40;91.60;;;;;;5052609;28;20469;-76
2023/01/04 03:15:16;;;;;;;31.83;23.30;;;11.40;91.90;;;;;;5038993;28;20042;-74
2023/01/04 03:17:51;;;;;;;33.25;23.63;;;11.40;91.60;;;;;;5034505;28;20045;-76
2023/01/04 03:20:19;;;;;;;28.20;21.48;;;11.40;91.90;;;;;;5034442;28;20029;-75
2023/01/04 03:37:32;;;;;;;31.52;22.50;;;11.40;91.80;;;;;;5052560;28;20569;-75
2023/01/04 03:49:22;;;;;;;31.65;23.50;;;11.40;92.10;;;;;;5055986;28;20087;-75
2023/01/04 03:51:52;;;;;;;32.00;22.98;;;11.40;92.00;;;;;;5056367;28;20040;-76
2023/01/04 03:54:28;;;;;;;28.33;22.90;;;11.40;92.00;;;;;;5056013;28;20116;-76
2023/01/04 03:56:55;;;;;;;32.47;23.58;;;11.40;92.10;;;;;;5056101;28;20040;-75
2023/01/04 03:59:22;;;;;;;31.52;24.45;;;11.40;92.20;;;;;;5038217;28;20496;-76
2023/01/04 04:01:48;;;;;;;31.50;24.00;;;11.40;92.20;;;;;;5055784;28;20029;-75
2023/01/04 04:09:42;;;;;;;;;;;11.50;92.00;;;;;;5056412;28;20036;-75
2023/01/04 04:12:08;;;;;;;34.42;24.10;;;11.40;92.20;;;;;;5055799;28;19908;-76
2023/01/04 04:14:34;;;;;;;31.75;23.70;;;11.40;92.30;;;;;;5055598;28;20040;-77
2023/01/04 04:16:59;;;;;;;30.60;23.08;;;11.40;92.00;;;;;;5037439;28;20033;-74
2023/01/04 04:19:25;;;;;;;31.30;23.15;;;11.40;92.10;;;;;;5037836;28;20420;-77
2023/01/04 04:21:51;;;;;;;29.80;23.52;;;11.40;92.00;;;;;;5037584;28;20068;-76
2023/01/04 04:24:23;;;;;;;32.83;21.73;;;11.30;91.90;;;;;;5037737;28;20123;-76
2023/01/04 04:26:49;;;;;;;30.83;22.88;;;11.30;92.10;;;;;;5055439;28;20068;-76
2023/01/04 04:29:15;;;;;;;30.60;21.65;;;11.30;92.20;;;;;;5055270;28;20107;-76
2023/01/04 04:31:41;;;;;;;29.77;21.70;;;11.30;92.20;;;;;;5055180;28;20137;-75
2023/01/04 04:34:08;;;;;;;26.13;21.48;;;11.30;92.20;;;;;;5055069;28;20029;-76
2023/01/04 04:36:34;;;;;;;28.48;19.65;;;11.30;92.10;;;;;;5075170;28;20032;-76
2023/01/04 04:39:00;;;;;;;26.92;20.75;;;11.20;92.10;;;;;;5075184;28;20051;-77
2023/01/04 04:41:37;;;;;;;26.17;19.38;;;11.20;92.20;;;;;;5056936;28;20559;-76
2023/01/04 04:44:15;;;;;;;26.88;18.88;;;11.20;91.90;;;;;;5074810;28;20463;-75
2023/01/04 04:46:42;;;;;;;23.67;18.58;;;11.20;92.30;;;;;;5056917;28;20096;-76
2023/01/04 04:49:08;;;;;;;25.60;19.33;;;11.10;92.10;;;;;;5056929;28;20051;-75
2023/01/04 04:51:34;;;;;;;25.15;18.63;;;11.10;92.10;;;;;;5075018;28;20460;-76
2023/01/04 04:54:00;;;;;;;26.13;18.20;;;11.10;92.10;;;;;;5056983;28;20060;-76
2023/01/04 04:56:26;;;;;;;23.15;18.85;;;11.10;92.20;;;;;;5074257;28;20040;-76
2023/01/04 04:58:52;;;;;;;26.17;19.10;;;11.10;92.00;;;;;;5056071;28;20047;-76
2023/01/04 05:01:18;;;;;;;27.02;17.85;;;11.10;92.00;;;;;;5074834;28;20074;-76
2023/01/04 05:03:44;;;;;;;23.42;18.33;;;11.10;91.90;;;;;;5074731;28;20041;-75
2023/01/04 05:06:09;;;;;;;24.63;19.00;;;11.10;92.00;;;;;;5074762;28;20103;-76
2023/01/04 05:08:35;;;;;;;26.25;18.27;;;11.10;92.10;;;;;;5056587;28;20048;-76
2023/01/04 05:11:06;;;;;;;27.83;19.23;;;11.00;92.10;;;;;;5056588;28;20551;-76
2023/01/04 05:13:32;;;;;;;26.50;19.40;;;11.00;92.20;;;;;;5056464;28;20033;-75
2023/01/04 05:15:58;;;;;;;22.85;18.35;;;11.00;92.30;;;;;;5074445;28;20033;-77
2023/01/04 05:18:23;;;;;;;22.52;17.15;;;11.00;92.10;;;;;;5074086;28;20037;-77
2023/01/04 05:20:49;;;;;;;25.63;17.98;;;11.00;92.10;;;;;;5074572;28;20037;-76
2023/01/04 05:23:17;;;;;;;23.73;18.48;;;11.00;92.30;;;;;;5056313;28;20123;-77
2023/01/04 05:25:43;;;;;;;26.23;17.85;;;10.90;92.30;;;;;;5056115;28;20051;-77
2023/01/04 05:28:09;;;;;;;23.75;17.48;;;10.90;92.20;;;;;;5074325;28;20487;-75
2023/01/04 05:30:51;;;;;;;21.80;17.27;;;10.90;92.30;;;;;;5074453;28;20036;-76
2023/01/04 05:33:30;;;;;;;21.33;16.95;;;11.00;92.40;;;;;;5074125;28;20035;-76
2023/01/04 05:35:58;;;;;;;22.98;17.27;;;11.00;92.50;;;;;;5056331;28;20039;-76
2023/01/04 05:38:24;;;;;;;22.38;16.08;;;11.00;92.40;;;;;;5073721;28;20128;-76
2023/01/04 05:40:50;;;;;;;23.00;17.20;;;11.00;92.30;;;;;;5073912;28;20175;-77
2023/01/04 05:43:18;;;;;;;24.65;17.13;;;11.00;92.30;;;;;;5055678;28;20055;-76
2023/01/04 05:45:48;;;;;;;24.23;16.40;;;11.00;92.40;;;;;;5074586;28;20495;-76
2023/01/04 05:48:14;;;;;;;23.80;16.23;;;11.10;92.40;;;;;;5074008;28;20500;-76
2023/01/04 05:50:40;;;;;;;23.20;16.77;;;11.00;92.30;;;;;;5056377;28;20028;-76
2023/01/04 05:53:06;;;;;;;24.50;16.75;;;11.00;92.30;;;;;;5073467;28;20354;-76
2023/01/04 05:55:32;;;;;;;21.60;17.02;;;11.00;92.30;;;;;;5055710;28;20039;-77
2023/01/04 05:57:58;;;;;;;21.45;17.33;;;11.00;92.40;;;;;;5073519;28;20037;-76
2023/01/04 06:00:24;;;;;;;23.50;17.73;;;10.90;92.20;;;;;;5055241;28;20120;-76
2023/01/04 06:02:51;;;;;;;23.05;16.77;;;11.00;92.30;;;;;;5055328;28;20127;-76
2023/01/04 06:05:17;;;;;;;22.67;17.77;;;11.00;92.40;;;;;;5072794;28;20017;-76
2023/01/04 06:07:43;;;;;;;24.30;17.15;;;11.00;92.30;;;;;;5055663;28;20067;-77
2023/01/04 06:10:10;;;;;;;23.95;17.02;;;11.10;92.40;;;;;;5072793;28;20033;-76
2023/01/04 06:12:37;;;;;;;22.30;17.40;;;11.10;92.30;;;;;;5055201;28;20090;-75
2023/01/04 06:15:04;;;;;;;25.40;16.77;;;11.00;92.40;;;;;;5055028;28;20484;-76
2023/01/04 06:17:30;;;;;;;27.05;17.38;;;11.00;92.20;;;;;;5054764;28;20045;-76
2023/01/04 06:19:56;;;;;;;26.38;18.10;;;11.00;92.30;;;;;;5054607;28;20040;-74
2023/01/04 06:22:22;;;;;;;24.52;16.98;;;11.00;92.30;;;;;;5055032;28;20036;-76
2023/01/04 06:24:47;;;;;;;24.85;17.25;;;11.00;92.30;;;;;;5072918;28;20117;-76
2023/01/04 06:27:13;;;;;;;27.23;17.58;;;10.90;92.20;;;;;;5072913;28;20029;-76
2023/01/04 06:29:39;;;;;;;25.83;17.67;;;11.00;92.30;;;;;;5072542;28;20170;-76
2023/01/04 06:32:05;;;;;;;21.23;16.92;;;11.00;92.30;;;;;;5073151;28;20024;-76
2023/01/04 06:34:30;;;;;;;24.17;16.73;;;10.90;92.10;;;;;;5072672;28;20040;-75
2023/01/04 06:36:56;;;;;;;24.77;17.48;;;11.00;92.40;;;;;;5072633;28;20040;-76
2023/01/04 06:39:22;;;;;;;26.45;17.83;;;11.00;92.40;;;;;;5054268;28;20392;-77
2023/01/04 06:41:48;;;;;;;31.27;18.83;;;11.00;92.30;;;;;;5054588;28;20091;-77
2023/01/04 06:44:13;;;;;;;25.17;18.13;;;11.00;92.20;;;;;;5072278;28;20056;-76
2023/01/04 06:46:39;;;;;;;25.30;17.65;;;11.10;92.30;;;;;;5072552;28;20043;-77
2023/01/04 06:49:06;;;;;;;23.42;17.33;;;11.10;92.30;;;;;;5054596;28;20028;-77
2023/01/04 06:51:31;;;;;;;27.73;18.23;;;11.10;92.30;;;;;;5072484;28;20425;-77
2023/01/04 06:53:57;;;;;;;25.30;18.13;;;11.10;92.20;;;;;;5054477;28;20124;-76
2023/01/04 06:56:23;;;;;;;23.27;17.30;;;11.10;92.10;;;;;;5072588;28;20032;-77
2023/01/04 06:58:48;;;;;;;30.25;18.25;;;11.00;92.00;;;;;;5072299;28;20049;-77
2023/01/04 07:01:14;;;;;;;23.17;16.55;;;11.00;92.00;;;;;;5072323;28;20541;-77
2023/01/04 07:03:40;;;;;;;22.75;16.83;;;11.00;92.10;;;;;;5072041;28;20060;-76
2023/01/04 07:06:06;;;;;;;26.48;16.77;;;11.00;92.10;;;;;;5072018;28;20059;-75
2023/01/04 07:08:33;;;;;;;24.33;17.38;;;11.00;92.10;;;;;;5054251;28;20040;-77
2023/01/04 07:10:59;;;;;;;23.50;17.85;;;11.00;92.10;;;;;;5054148;28;20535;-76
2023/01/04 07:13:25;;;;;;;23.23;17.33;;;11.10;92.00;;;;;;5072154;28;20082;-76
2023/01/04 07:15:51;;;;;;;29.13;17.13;;;11.10;91.90;;;;;;5053813;28;20040;-76
2023/01/04 07:18:16;;;;;;;26.30;18.30;;;11.20;91.90;;;;;;5071972;28;20432;-77
2023/01/04 07:20:42;;;;;;;24.25;17.90;;;11.30;91.80;;;;;;5053563;28;20120;-77
2023/01/04 07:23:09;;;;;;;26.83;18.08;;;11.30;91.70;;;;;;5054193;28;20067;-76
2023/01/04 07:25:35;;;;;;;22.63;17.33;;;11.40;91.80;;;;;;5053973;28;20511;-76
2023/01/04 07:28:01;;;;;;;25.33;17.63;;;11.40;91.60;;;;;;5071792;28;20045;-79
2023/01/04 07:30:27;;;;;;;25.33;17.48;;;11.40;91.50;;;;;;5072135;28;20033;-76
2023/01/04 07:32:54;;;;;;;21.85;17.20;;;11.50;91.60;;;;;;5053645;28;20518;-78
2023/01/04 07:35:21;;;;;;;24.23;17.40;;;11.50;91.50;;;;;;5053774;28;20024;-76
2023/01/04 07:37:46;;;;;;;23.65;16.27;;;11.50;91.40;;;;;;5071939;28;20040;-78
2023/01/04 07:40:12;;;;;;;21.20;16.25;;;11.60;91.30;;;;;;5053929;28;20021;-77
2023/01/04 07:42:38;;;;;;;20.83;16.52;;;11.70;91.40;;;;;;5071803;28;20055;-77
2023/01/04 07:45:05;;;;;;;20.38;16.17;;;11.80;91.30;;;;;;5071766;28;20104;-76
2023/01/04 07:47:31;;;;;;;22.63;16.30;;;11.70;91.10;;;;;;5071719;28;20495;-77
2023/01/04 07:49:57;;;;;;;21.65;16.50;;;11.80;91.20;;;;;;5053884;28;20138;-77
2023/01/04 07:52:23;;;;;;;20.50;15.48;;;11.80;91.00;;;;;;5071203;28;20040;-78
2023/01/04 07:54:49;;;;;;;22.02;16.35;;;11.70;90.90;;;;;;5053273;28;20033;-75
2023/01/04 07:57:14;;;;;;;27.85;20.33;;;11.70;91.00;;;;;;5072667;28;20040;-76
2023/01/04 07:59:40;;;;;;;25.55;17.25;;;11.80;91.00;;;;;;5071433;28;20055;-76
2023/01/04 08:02:08;;;;;;;26.25;16.73;;;11.80;91.00;;;;;;5052895;28;20059;-76
2023/01/04 08:04:34;;;;;;;18.15;15.15;;;11.90;90.90;;;;;;5070853;28;20032;-77
2023/01/04 08:07:00;;;;;;;19.27;15.00;;;11.90;90.80;;;;;;5071262;28;20119;-76
2023/01/04 08:09:25;;;;;;;20.67;13.57;;;12.00;90.70;;;;;;5053066;28;20052;-77
2023/01/04 08:11:51;;;;;;;20.83;15.43;;;12.00;90.50;;;;;;5053034;28;20150;-78
2023/01/04 08:14:17;;;;;;;19.38;14.52;;;12.00;90.60;;;;;;5070773;28;20039;-76
2023/01/04 08:16:43;;;;;;;17.98;14.48;;;12.10;90.60;;;;;;5070639;28;20029;-80
2023/01/04 08:19:18;;;;;;;19.15;14.75;;;12.10;90.30;;;;;;5070601;28;20461;-79
2023/01/04 08:21:45;;;;;;;18.35;13.75;;;12.20;90.30;;;;;;5071667;28;20108;-86
2023/01/04 08:24:13;;;;;;;17.50;13.77;;;12.20;90.30;;;;;;5054272;28;20040;-79
2023/01/04 08:26:39;;;;;;;18.45;13.80;;;12.30;90.10;;;;;;5070962;28;20229;-79
2023/01/04 08:29:05;;;;;;;20.33;14.45;;;12.30;90.10;;;;;;5070650;28;20092;-76
2023/01/04 08:31:31;;;;;;;19.00;13.77;;;12.40;90.00;;;;;;5053934;28;20043;-76
2023/01/04 08:34:00;;;;;;;19.38;13.57;;;12.50;89.70;;;;;;5074653;28;20103;-78
2023/01/04 08:36:28;;;;;;;23.70;15.05;;;12.50;89.90;;;;;;5074490;28;20442;-70
2023/01/04 08:39:01;;;;;;;20.70;14.55;;;12.50;89.40;;;;;;5056346;28;20448;-78
2023/01/04 08:41:28;;;;;;;;;;;12.60;89.70;;;;;;5074915;28;20041;-75
2023/01/04 08:43:53;;;;;;;18.00;14.75;;;12.60;89.30;;;;;;5056147;28;20059;-74
2023/01/04 08:46:19;;;;;;;20.38;14.15;;;12.60;89.50;;;;;;5074122;28;20063;-75
2023/01/04 08:48:45;;;;;;;19.98;14.25;;;12.60;89.40;;;;;;5074015;28;20112;-74
2023/01/04 08:51:13;;;;;;;19.27;14.40;;;12.70;89.40;;;;;;5055961;28;20052;-74
2023/01/04 08:53:40;;;;;;;25.00;14.27;;;12.80;89.40;;;;;;5056141;28;20028;-76
2023/01/04 08:56:06;;;;;;;18.05;14.00;;;12.80;89.00;;;;;;5056458;28;20068;-75
2023/01/04 08:58:33;;;;;;;22.73;14.57;;;12.90;89.00;;;;;;5055931;28;20045;-78
2023/01/04 09:01:10;;;;;;;20.30;14.20;;;12.90;89.10;;;;;;5074677;28;20036;-77
2023/01/04 09:03:37;;;;;;;21.73;15.02;;;12.90;89.00;;;;;;5074396;28;20032;-80
2023/01/04 09:06:08;;;;;;;19.50;14.13;;;13.00;88.90;;;;;;5074139;28;20029;-73
2023/01/04 09:08:36;;;;;;;21.05;15.95;;;13.00;88.40;;;;;;5055790;28;20123;-72
2023/01/04 09:11:17;;;;;;;20.23;15.40;;;13.00;88.70;;;;;;5073978;28;20036;-77
2023/01/04 09:13:44;;;;;;;19.58;15.25;;;13.00;88.10;;;;;;5073785;28;20041;-80
2023/01/04 09:16:14;;;;;;;19.35;15.38;;;13.00;88.70;;;;;;5073790;28;20436;-77
2023/01/04 09:18:40;;;;;;;19.50;16.02;;;13.10;88.80;;;;;;5055574;28;20105;-74
2023/01/04 09:21:11;;;;;;;22.30;16.15;;;13.20;88.80;;;;;;5073973;28;20029;-76
2023/01/04 09:23:37;;;;;;;21.45;15.80;;;13.30;88.70;;;;;;5056036;28;20110;-74
2023/01/04 09:26:07;;;;;;;21.40;16.40;;;13.30;88.20;;;;;;5055881;28;20346;-75
2023/01/04 09:28:33;;;;;;;21.60;16.02;;;13.30;88.20;;;;;;5073784;28;20033;-77
2023/01/04 09:31:05;;;;;;;21.95;16.02;;;13.40;88.10;;;;;;5055500;28;20127;-76
2023/01/04 09:33:30;;;;;;;25.13;16.63;;;13.40;87.70;;;;;;5073365;28;20044;-80
2023/01/04 09:36:01;;;;;;;27.58;15.23;;;13.50;87.80;;;;;;5073674;28;20036;-77
2023/01/04 09:38:27;;;;;;;24.70;15.52;;;13.60;88.00;;;;;;5055887;28;20059;-74
2023/01/04 09:41:01;;;;;;;20.63;16.35;;;13.70;87.70;;;;;;5073628;28;20424;-78
2023/01/04 09:43:30;;;;;;;22.92;15.93;;;13.80;87.50;;;;;;5072635;28;20499;-78
2023/01/04 09:46:02;;;;;;;21.10;15.73;;;13.90;87.40;;;;;;5073197;28;20129;-77
2023/01/04 09:48:29;;;;;;;19.60;15.38;;;13.90;87.20;;;;;;5073150;28;20066;-78
2023/01/04 09:51:01;;;;;;;18.42;14.50;;;13.90;86.80;;;;;;5055332;28;20034;-80
2023/01/04 09:53:34;;;;;;;19.02;15.25;;;14.00;86.90;;;;;;5055402;28;20413;-76
2023/01/04 09:56:32;;;;;;;21.27;15.52;;;14.00;86.10;;;;;;5073174;28;20033;-78
2023/01/04 09:59:00;;;;;;;23.30;15.35;;;14.10;85.90;;;;;;5053513;28;20036;-73
2023/01/04 10:01:32;;;;;;;18.38;14.38;;;14.20;85.70;;;;;;5073067;28;20035;-75
2023/01/04 10:04:06;;;;;;;20.77;15.07;;;14.20;85.50;;;;;;5072968;28;20041;-78
2023/01/04 10:06:33;;;;;;;26.42;16.02;;;14.30;85.20;;;;;;5073356;28;20059;-80
2023/01/04 10:09:03;;;;;;;20.45;15.52;;;14.40;85.40;;;;;;5055878;28;20079;-77
2023/01/04 10:11:54;;;;;;;21.67;15.38;;;14.40;85.20;;;;;;5055159;28;20028;-80
2023/01/04 10:15:12;;;;;;;17.48;14.55;;;14.50;84.90;;;;;;5073094;28;20032;-81
2023/01/04 10:18:01;;;;;;;22.60;15.80;;;14.60;85.10;;;;;;5072728;28;20051;-81
2023/01/04 10:20:49;;;;;;;21.05;15.55;;;14.70;84.40;;;;;;5054436;28;20102;-80
2023/01/04 10:23:27;;;;;;;22.83;15.57;;;14.80;84.50;;;;;;5072587;28;20094;-76
2023/01/04 10:26:14;;;;;;;23.25;15.88;;;15.00;84.30;;;;;;5073055;28;20031;-78
2023/01/04 10:29:24;;;;;;;16.77;13.90;;;15.10;83.70;;;;;;5072686;28;20119;-74
2023/01/04 10:32:12;;;;;;;17.67;12.80;;;15.10;83.30;;;;;;5057486;28;20131;-79
2023/01/04 10:34:46;;;;;;;18.58;12.18;;;15.20;82.90;;;;;;5076730;28;20429;-80
2023/01/04 10:37:22;;;;;;;17.70;12.88;;;15.30;82.00;;;;;;5058314;28;20036;-79
2023/01/04 10:39:54;;;;;;;16.98;13.85;;;15.40;82.10;;;;;;5073390;28;20029;-78
2023/01/04 10:42:39;;;;;;;17.17;12.68;;;15.50;81.70;;;;;;5072287;28;20373;-78
2023/01/04 10:45:30;;;;;;;14.57;10.88;;;15.60;82.20;;;;;;5054608;28;20032;-89
2023/01/04 10:48:16;;;;;;;19.88;11.75;;;15.70;82.00;;;;;;5073253;28;20032;-81
2023/01/04 10:50:58;;;;;;;16.67;10.88;;;15.80;81.80;;;;;;5072856;28;20578;-82
2023/01/04 10:53:47;;;;;;;19.13;11.50;;;15.80;81.50;;;;;;5072247;28;20073;-84
2023/01/04 10:56:25;;;;;;;21.00;10.38;;;15.80;81.70;;;;;;5072032;28;20203;-73
2023/01/04 10:59:17;;;;;;;18.50;11.77;;;15.80;81.20;;;;;;5071999;28;20041;-76
2023/01/04 11:01:47;;;;;;;17.42;12.30;;;15.70;81.30;;;;;;5065889;28;20021;-76
2023/01/04 11:04:54;;;;;;;16.20;11.70;;;15.60;80.90;;;;;;5071751;28;20043;-73
2023/01/04 11:07:49;;;;;;;18.60;12.25;;;15.50;80.90;;;;;;4973701;28;20514;-74
2023/01/04 11:10:19;;;;;;;;;;;15.50;81.30;;;;;;5049289;28;20044;-70
2023/01/04 11:12:45;;;;;;;15.50;11.07;;;15.50;80.40;;;;;;5059458;28;20344;-72
2023/01/04 11:15:11;;;;;;;17.33;11.52;;;15.50;81.20;;;;;;5061656;28;20029;-73
2023/01/04 11:17:37;;;;;;;14.32;11.23;;;15.50;80.90;;;;;;5043733;28;20057;-73
2023/01/04 11:20:03;;;;;;;15.35;11.40;;;15.60;81.20;;;;;;5050437;28;20035;-73
2023/01/04 11:22:38;;;;;;;16.58;11.98;;;15.50;81.20;;;;;;5053415;28;20048;-72
2023/01/04 11:25:16;;;;;;;20.88;12.70;;;15.50;81.20;;;;;;5071750;28;20113;-73
2023/01/04 11:27:48;;;;;;;16.90;12.02;;;15.40;81.50;;;;;;5071506;28;20571;-73
2023/01/04 11:30:57;;;;;;;17.38;12.32;;;15.30;81.10;;;;;;5071175;28;20024;-71
2023/01/04 11:33:24;;;;;;;23.48;12.45;;;15.30;81.30;;;;;;5042456;28;20056;-75
2023/01/04 11:35:52;;;;;;;17.08;11.90;;;15.30;81.40;;;;;;5071428;28;20037;-73
2023/01/04 11:38:23;;;;;;;20.15;12.93;;;15.30;81.50;;;;;;5053281;28;20068;-71
2023/01/04 11:41:04;;;;;;;17.23;12.38;;;15.30;81.30;;;;;;5053333;28;20097;-72
2023/01/04 11:43:38;;;;;;;25.55;13.18;;;15.30;81.30;;;;;;5053315;28;20076;-73
2023/01/04 11:46:07;;;;;;;21.08;12.35;;;15.40;82.00;;;;;;5071699;28;20032;-73
2023/01/04 11:48:52;;;;;;;17.13;11.38;;;15.50;81.80;;;;;;5053476;28;20038;-73
2023/01/04 11:51:24;;;;;;;16.40;12.00;;;15.60;81.00;;;;;;5053355;28;20107;-73
2023/01/04 11:53:58;;;;;;;17.02;11.98;;;15.60;81.30;;;;;;5071621;28;20040;-73
2023/01/04 11:56:25;;;;;;;15.88;11.90;;;15.70;80.60;;;;;;5071627;28;20056;-72
2023/01/04 11:59:14;;;;;;;20.70;11.93;;;15.70;80.70;;;;;;5053816;28;20488;-73
2023/01/04 12:01:45;;;;;;;15.65;10.73;;;15.70;80.90;;;;;;5053634;28;20127;-74
2023/01/04 12:04:24;;;;;;;22.73;11.52;;;15.70;80.70;;;;;;5068335;28;20090;-74
2023/01/04 12:06:55;;;;;;;16.80;11.93;;;15.70;80.90;;;;;;5040537;28;20028;-75
2023/01/04 12:09:21;;;;;;;20.77;13.25;;;15.80;80.70;;;;;;5055569;28;20032;-74
2023/01/04 12:11:54;;;;;;;18.00;13.88;;;15.80;80.60;;;;;;5037496;28;20036;-70
2023/01/04 12:14:35;;;;;;;16.80;12.82;;;15.90;80.70;;;;;;5055099;28;20029;-71
2023/01/04 12:17:19;;;;;;;17.83;13.27;;;15.90;80.80;;;;;;5036993;28;20044;-73
2023/01/04 12:19:46;;;;;;;18.52;13.55;;;15.90;81.00;;;;;;5055515;28;20404;-72
2023/01/04 12:22:23;;;;;;;18.27;14.23;;;16.00;81.00;;;;;;5037370;28;20032;-71
2023/01/04 12:24:49;;;;;;;18.23;14.27;;;16.00;81.10;;;;;;5054895;28;20094;-73
2023/01/04 12:27:16;;;;;;;24.55;14.95;;;16.10;80.90;;;;;;5067297;28;20097;-70
2023/01/04 12:29:59;;;;;;;21.30;14.07;;;16.10;80.80;;;;;;5074872;28;20429;-71
2023/01/04 12:32:25;;;;;;;19.02;15.07;;;16.20;81.00;;;;;;5058137;28;20033;-73
2023/01/04 12:34:51;;;;;;;23.35;14.55;;;16.20;80.80;;;;;;5036674;28;20128;-71
2023/01/04 12:37:37;;;;;;;18.60;13.90;;;16.20;80.80;;;;;;5055261;28;20037;-73
2023/01/04 12:40:40;;;;;;;20.48;14.02;;;16.20;81.10;;;;;;5040761;28;20033;-72
2023/01/04 12:43:14;;;;;;;18.52;14.18;;;16.30;81.40;;;;;;5054139;28;20048;-72
2023/01/04 12:45:45;;;;;;;19.10;13.88;;;16.30;80.90;;;;;;5054157;28;20461;-71
2023/01/04 12:51:22;;;;;;;18.52;12.77;;;16.40;80.80;;;;;;5054596;28;20091;-72
2023/01/04 12:54:30;;;;;;;13.88;10.93;;;16.50;80.40;;;;;;5054128;28;20041;-72
2023/01/04 12:57:09;;;;;;;19.45;11.75;;;16.50;80.30;;;;;;5036737;28;20099;-72
2023/01/04 12:59:37;;;;;;;18.23;12.20;;;16.50;80.20;;;;;;5046313;28;20545;-71
2023/01/04 13:02:23;;;;;;;16.85;11.93;;;16.60;79.90;;;;;;5034663;28;20040;-72
2023/01/04 13:04:51;;;;;;;15.93;12.23;;;16.60;80.00;;;;;;5035238;28;20134;-69
2023/01/04 13:07:29;;;;;;;15.20;12.55;;;16.70;80.00;;;;;;5035349;28;20060;-72
2023/01/04 13:10:19;;;;;;;17.02;12.27;;;16.70;79.70;;;;;;5034517;28;20029;-71
2023/01/04 13:13:09;;;;;;;17.20;11.98;;;16.80;79.50;;;;;;5034090;28;20040;-72
2023/01/04 13:16:12;;;;;;;19.83;13.65;;;16.90;79.50;;;;;;5034883;28;20033;-71
2023/01/04 13:18:46;;;;;;;11.68;9.65;;;17.00;79.40;;;;;;5052004;28;20044;-72
2023/01/04 13:21:30;;;;;;;20.33;12.73;;;17.00;79.40;;;;;;5034219;28;20033;-72
2023/01/04 13:24:18;;;;;;;18.98;12.20;;;17.10;79.40;;;;;;5035460;28;20044;-72
2023/01/04 13:26:50;;;;;;;19.58;11.88;;;17.10;79.30;;;;;;5046459;28;20124;-72
2023/01/04 13:29:29;;;;;;;18.20;12.48;;;17.10;79.10;;;;;;5052644;28;20036;-71
2023/01/04 13:31:58;;;;;;;18.90;13.02;;;17.10;79.10;;;;;;5053818;28;20048;-72
2023/01/04 13:34:43;;;;;;;16.25;12.80;;;17.10;79.40;;;;;;5053500;28;20029;-71
2023/01/04 13:37:09;;;;;;;17.23;12.88;;;17.10;79.30;;;;;;5038396;28;20079;-72